Blue Moon — WDH6690 — position and weather

sailwx.info

Track history (hours):
 
Tides and Currents Weather Stations Pressure Air Temp Water Temp Dewpoint Dewpoint Depression Visibility Wind Speed Wind Dir Waves Ship Positions

Blue Moon

Owner: Hicks, Jeff, Coral Gables, FL. More information available from US FCC via Universal Licensing System and Coast Guard Vessel Documentation Center.

Last reported at 2018-May-24 09:00 UTC. Time now 2018-Jun-22 20:51 UTC.
Position N 25°43' W 080°13'.
Warning: this ship's position is 29 days out of date.

Length 24 m.

Type: Pleasure craft. MMSI: 367640660.

Date/timePositionNaut miles runAvg speedWind from/ knotsBaromVisibWave heightAir tempDewpointWater temp
2018-May-24 09:00N 25°43' W 080°13'1 2.2
2018-May-24 08:30N 25°44' W 080°14'  
2018-May-16 21:57N 25°44' W 080°14'0 0.0
2018-May-16 17:10N 25°44' W 080°14'0 0.3
2018-May-16 17:00N 25°44' W 080°14'3 4.8
2018-May-16 16:28N 25°44' W 080°11'2 3.7
2018-May-16 15:55N 25°46' W 080°11'0 0.0
2018-May-16 15:28N 25°46' W 080°11'0 0.0
2018-May-16 14:58N 25°46' W 080°11'1 3.1
2018-May-16 14:30N 25°45' W 080°11'3 5.4
2018-May-16 13:58N 25°44' W 080°14'  
Track history (hours):
 
Tides and Currents Weather Stations Pressure Air Temp Water Temp Dewpoint Dewpoint Depression Visibility Wind Speed Wind Dir Waves Ship Positions

Blue Moon

Owner: Hicks, Jeff, Coral Gables, FL. More information available from US FCC via Universal Licensing System and Coast Guard Vessel Documentation Center.

Last reported at 2018-May-24 09:00 UTC. Time now 2018-Jun-22 20:51 UTC.
Position N 25°43' W 080°13'.
Warning: this ship's position is 29 days out of date.

Length 24 m.

Type: Pleasure craft. MMSI: 367640660.

Date/timePositionNaut miles runAvg speedWind from/ knotsBaromVisibWave heightAir tempDewpointWater temp
2018-May-24 09:00N 25°43' W 080°13'1 2.2
2018-May-24 08:30N 25°44' W 080°14'  
2018-May-16 21:57N 25°44' W 080°14'0 0.0
2018-May-16 17:10N 25°44' W 080°14'0 0.3
2018-May-16 17:00N 25°44' W 080°14'3 4.8
2018-May-16 16:28N 25°44' W 080°11'2 3.7
2018-May-16 15:55N 25°46' W 080°11'0 0.0
2018-May-16 15:28N 25°46' W 080°11'0 0.0
2018-May-16 14:58N 25°46' W 080°11'1 3.1
2018-May-16 14:30N 25°45' W 080°11'3 5.4
2018-May-16 13:58N 25°44' W 080°14'  

Dump ship's entire track history